sensor_id;sensor_type;location;lat;lon;timestamp;temperature;humidity
66088;DHT22;52872;52.994;6.940;2023-05-03T00:01:40;6.90;99.90
66088;DHT22;52872;52.994;6.940;2023-05-03T00:04:09;6.90;99.90
66088;DHT22;52872;52.994;6.940;2023-05-03T00:06:36;7.00;99.90
66088;DHT22;52872;52.994;6.940;2023-05-03T00:09:03;7.10;99.90
66088;DHT22;52872;52.994;6.940;2023-05-03T00:11:30;7.10;99.90
66088;DHT22;52872;52.994;6.940;2023-05-03T00:13:57;7.10;99.90
66088;DHT22;52872;52.994;6.940;2023-05-03T00:16:24;7.20;99.90
66088;DHT22;52872;52.994;6.940;2023-05-03T00:18:51;7.20;99.90
66088;DHT22;52872;52.994;6.940;2023-05-03T00:21:18;7.20;99.90
66088;DHT22;52872;52.994;6.940;2023-05-03T00:23:45;7.20;99.90
66088;DHT22;52872;52.994;6.940;2023-05-03T00:26:12;7.30;99.90
66088;DHT22;52872;52.994;6.940;2023-05-03T00:28:40;7.30;99.90
66088;DHT22;52872;52.994;6.940;2023-05-03T00:31:08;7.30;99.90
66088;DHT22;52872;52.994;6.940;2023-05-03T00:33:38;7.30;99.90
66088;DHT22;52872;52.994;6.940;2023-05-03T00:36:07;7.40;99.90
66088;DHT22;52872;52.994;6.940;2023-05-03T00:38:35;7.40;99.90
66088;DHT22;52872;52.994;6.940;2023-05-03T00:41:02;7.40;99.90
66088;DHT22;52872;52.994;6.940;2023-05-03T00:43:30;7.40;99.90
66088;DHT22;52872;52.994;6.940;2023-05-03T00:45:58;7.50;99.90
66088;DHT22;52872;52.994;6.940;2023-05-03T00:48:38;7.50;99.90
66088;DHT22;52872;52.994;6.940;2023-05-03T00:51:05;7.50;99.90
66088;DHT22;52872;52.994;6.940;2023-05-03T00:53:33;7.60;99.90
66088;DHT22;52872;52.994;6.940;2023-05-03T00:56:00;7.60;99.90
66088;DHT22;52872;52.994;6.940;2023-05-03T00:58:27;7.60;99.90
66088;DHT22;52872;52.994;6.940;2023-05-03T01:00:54;7.70;99.90
66088;DHT22;52872;52.994;6.940;2023-05-03T01:03:22;7.70;99.90
66088;DHT22;52872;52.994;6.940;2023-05-03T01:09:01;7.70;99.90
66088;DHT22;52872;52.994;6.940;2023-05-03T01:17:35;7.70;99.90
66088;DHT22;52872;52.994;6.940;2023-05-03T01:20:06;7.70;99.90
66088;DHT22;52872;52.994;6.940;2023-05-03T01:25:12;7.70;99.90
66088;DHT22;52872;52.994;6.940;2023-05-03T01:27:39;7.70;99.90
66088;DHT22;52872;52.994;6.940;2023-05-03T01:30:09;7.80;99.90
66088;DHT22;52872;52.994;6.940;2023-05-03T01:35:56;7.90;99.90
66088;DHT22;52872;52.994;6.940;2023-05-03T01:38:30;7.90;99.90
66088;DHT22;52872;52.994;6.940;2023-05-03T01:41:00;7.90;99.90
66088;DHT22;52872;52.994;6.940;2023-05-03T01:43:28;7.90;99.90
66088;DHT22;52872;52.994;6.940;2023-05-03T01:45:57;7.90;99.90
66088;DHT22;52872;52.994;6.940;2023-05-03T01:48:24;8.00;99.90
66088;DHT22;52872;52.994;6.940;2023-05-03T01:50:51;8.00;99.90
66088;DHT22;52872;52.994;6.940;2023-05-03T01:53:18;8.00;99.90
66088;DHT22;52872;52.994;6.940;2023-05-03T01:55:45;8.00;99.90
66088;DHT22;52872;52.994;6.940;2023-05-03T01:58:12;8.00;99.90
66088;DHT22;52872;52.994;6.940;2023-05-03T02:00:39;8.10;99.90
66088;DHT22;52872;52.994;6.940;2023-05-03T02:03:06;8.10;99.90
66088;DHT22;52872;52.994;6.940;2023-05-03T02:05:34;8.10;99.90
66088;DHT22;52872;52.994;6.940;2023-05-03T02:08:01;8.10;99.90
66088;DHT22;52872;52.994;6.940;2023-05-03T02:10:27;8.10;99.90
66088;DHT22;52872;52.994;6.940;2023-05-03T02:12:54;8.20;99.90
66088;DHT22;52872;52.994;6.940;2023-05-03T02:15:21;8.20;99.90
66088;DHT22;52872;52.994;6.940;2023-05-03T02:17:48;8.20;99.90
66088;DHT22;52872;52.994;6.940;2023-05-03T02:20:16;8.20;99.90
66088;DHT22;52872;52.994;6.940;2023-05-03T02:22:43;8.20;99.90
66088;DHT22;52872;52.994;6.940;2023-05-03T02:25:10;8.20;99.90
66088;DHT22;52872;52.994;6.940;2023-05-03T02:27:37;8.20;99.90
66088;DHT22;52872;52.994;6.940;2023-05-03T02:30:04;8.30;99.90
66088;DHT22;52872;52.994;6.940;2023-05-03T02:32:38;8.30;99.90
66088;DHT22;52872;52.994;6.940;2023-05-03T02:35:06;8.30;99.90
66088;DHT22;52872;52.994;6.940;2023-05-03T02:37:33;8.30;99.90
66088;DHT22;52872;52.994;6.940;2023-05-03T02:40:06;8.40;99.90
66088;DHT22;52872;52.994;6.940;2023-05-03T02:42:35;8.30;99.90
66088;DHT22;52872;52.994;6.940;2023-05-03T02:45:04;8.40;99.90
66088;DHT22;52872;52.994;6.940;2023-05-03T02:47:31;8.40;99.90
66088;DHT22;52872;52.994;6.940;2023-05-03T02:49:58;8.40;99.90
66088;DHT22;52872;52.994;6.940;2023-05-03T02:52:25;8.40;99.90
66088;DHT22;52872;52.994;6.940;2023-05-03T02:54:52;8.40;99.90
66088;DHT22;52872;52.994;6.940;2023-05-03T02:57:20;8.40;99.90
66088;DHT22;52872;52.994;6.940;2023-05-03T02:59:47;8.40;99.90
66088;DHT22;52872;52.994;6.940;2023-05-03T03:02:14;8.40;99.90
66088;DHT22;52872;52.994;6.940;2023-05-03T03:04:41;8.40;99.90
66088;DHT22;52872;52.994;6.940;2023-05-03T03:07:08;8.40;99.90
66088;DHT22;52872;52.994;6.940;2023-05-03T03:09:36;8.40;99.90
66088;DHT22;52872;52.994;6.940;2023-05-03T03:12:03;8.40;99.90
66088;DHT22;52872;52.994;6.940;2023-05-03T03:14:31;8.40;99.90
66088;DHT22;52872;52.994;6.940;2023-05-03T03:17:00;8.40;99.90
66088;DHT22;52872;52.994;6.940;2023-05-03T03:19:27;8.40;99.90
66088;DHT22;52872;52.994;6.940;2023-05-03T03:21:54;8.40;99.90
66088;DHT22;52872;52.994;6.940;2023-05-03T03:24:23;8.40;99.90
66088;DHT22;52872;52.994;6.940;2023-05-03T03:26:51;8.40;99.90
66088;DHT22;52872;52.994;6.940;2023-05-03T03:29:18;8.40;99.90
66088;DHT22;52872;52.994;6.940;2023-05-03T03:31:45;8.40;99.90
66088;DHT22;52872;52.994;6.940;2023-05-03T03:34:14;8.40;99.90
66088;DHT22;52872;52.994;6.940;2023-05-03T03:36:41;8.40;99.90
66088;DHT22;52872;52.994;6.940;2023-05-03T03:39:08;8.30;99.90
66088;DHT22;52872;52.994;6.940;2023-05-03T03:41:36;8.40;99.90
66088;DHT22;52872;52.994;6.940;2023-05-03T03:44:03;8.30;99.90
66088;DHT22;52872;52.994;6.940;2023-05-03T03:46:30;8.30;99.90
66088;DHT22;52872;52.994;6.940;2023-05-03T03:48:58;8.20;99.90
66088;DHT22;52872;52.994;6.940;2023-05-03T03:51:27;8.20;99.90
66088;DHT22;52872;52.994;6.940;2023-05-03T03:53:54;8.20;99.90
66088;DHT22;52872;52.994;6.940;2023-05-03T03:56:25;8.20;99.90
66088;DHT22;52872;52.994;6.940;2023-05-03T03:58:54;8.10;99.90
66088;DHT22;52872;52.994;6.940;2023-05-03T04:01:22;8.10;99.90
66088;DHT22;52872;52.994;6.940;2023-05-03T04:03:49;8.10;99.90
66088;DHT22;52872;52.994;6.940;2023-05-03T04:06:16;8.10;99.90
66088;DHT22;52872;52.994;6.940;2023-05-03T04:08:43;8.10;99.90
66088;DHT22;52872;52.994;6.940;2023-05-03T04:11:12;8.10;99.90
66088;DHT22;52872;52.994;6.940;2023-05-03T04:13:45;8.00;99.90
66088;DHT22;52872;52.994;6.940;2023-05-03T04:16:12;8.00;99.90
66088;DHT22;52872;52.994;6.940;2023-05-03T04:18:40;8.00;99.90
66088;DHT22;52872;52.994;6.940;2023-05-03T04:21:08;8.10;99.90
66088;DHT22;52872;52.994;6.940;2023-05-03T04:23:35;8.10;99.90
66088;DHT22;52872;52.994;6.940;2023-05-03T04:26:04;8.10;99.90
66088;DHT22;52872;52.994;6.940;2023-05-03T04:28:34;8.10;99.90
66088;DHT22;52872;52.994;6.940;2023-05-03T04:31:01;8.20;99.90
66088;DHT22;52872;52.994;6.940;2023-05-03T04:33:29;8.20;99.90
66088;DHT22;52872;52.994;6.940;2023-05-03T04:36:01;8.20;99.90
66088;DHT22;52872;52.994;6.940;2023-05-03T04:38:28;8.30;99.90
66088;DHT22;52872;52.994;6.940;2023-05-03T04:40:58;8.30;99.90
66088;DHT22;52872;52.994;6.940;2023-05-03T04:43:25;8.40;99.90
66088;DHT22;52872;52.994;6.940;2023-05-03T04:45:53;8.50;99.90
66088;DHT22;52872;52.994;6.940;2023-05-03T04:48:23;8.50;99.90
66088;DHT22;52872;52.994;6.940;2023-05-03T04:50:50;8.60;99.90
66088;DHT22;52872;52.994;6.940;2023-05-03T04:53:20;8.70;99.90
66088;DHT22;52872;52.994;6.940;2023-05-03T04:55:56;8.70;99.90
66088;DHT22;52872;52.994;6.940;2023-05-03T04:58:23;8.80;99.90
66088;DHT22;52872;52.994;6.940;2023-05-03T05:00:52;8.90;99.90
66088;DHT22;52872;52.994;6.940;2023-05-03T05:03:27;8.90;99.90
66088;DHT22;52872;52.994;6.940;2023-05-03T05:05:54;9.00;99.90
66088;DHT22;52872;52.994;6.940;2023-05-03T05:08:22;9.10;99.90
66088;DHT22;52872;52.994;6.940;2023-05-03T05:10:54;9.20;99.90
66088;DHT22;52872;52.994;6.940;2023-05-03T05:13:25;9.20;99.90
66088;DHT22;52872;52.994;6.940;2023-05-03T05:15:52;9.30;99.90
66088;DHT22;52872;52.994;6.940;2023-05-03T05:18:20;9.40;99.90
66088;DHT22;52872;52.994;6.940;2023-05-03T05:20:48;9.50;99.90
66088;DHT22;52872;52.994;6.940;2023-05-03T05:23:18;9.50;99.90
66088;DHT22;52872;52.994;6.940;2023-05-03T05:25:46;9.60;99.90
66088;DHT22;52872;52.994;6.940;2023-05-03T05:28:13;9.70;99.90
66088;DHT22;52872;52.994;6.940;2023-05-03T05:30:40;9.80;99.90
66088;DHT22;52872;52.994;6.940;2023-05-03T05:33:08;9.90;99.90
66088;DHT22;52872;52.994;6.940;2023-05-03T05:35:35;10.10;99.90
66088;DHT22;52872;52.994;6.940;2023-05-03T05:38:03;10.10;99.90
66088;DHT22;52872;52.994;6.940;2023-05-03T05:40:31;10.20;99.90
66088;DHT22;52872;52.994;6.940;2023-05-03T05:42:59;10.40;99.90
66088;DHT22;52872;52.994;6.940;2023-05-03T05:45:28;10.50;99.90
66088;DHT22;52872;52.994;6.940;2023-05-03T05:47:56;10.60;99.90
66088;DHT22;52872;52.994;6.940;2023-05-03T05:50:23;10.70;99.90
66088;DHT22;52872;52.994;6.940;2023-05-03T05:52:58;10.90;99.90
66088;DHT22;52872;52.994;6.940;2023-05-03T05:55:28;11.00;99.90
66088;DHT22;52872;52.994;6.940;2023-05-03T05:57:57;11.10;99.90
66088;DHT22;52872;52.994;6.940;2023-05-03T06:00:31;11.20;99.90
66088;DHT22;52872;52.994;6.940;2023-05-03T06:02:58;11.30;99.90
66088;DHT22;52872;52.994;6.940;2023-05-03T06:05:25;11.30;99.90
66088;DHT22;52872;52.994;6.940;2023-05-03T06:07:52;11.40;99.90
66088;DHT22;52872;52.994;6.940;2023-05-03T06:10:19;11.50;99.90
66088;DHT22;52872;52.994;6.940;2023-05-03T06:12:50;11.50;99.90
66088;DHT22;52872;52.994;6.940;2023-05-03T06:15:21;11.50;99.90
66088;DHT22;52872;52.994;6.940;2023-05-03T06:17:48;11.60;99.90
66088;DHT22;52872;52.994;6.940;2023-05-03T06:20:16;11.70;99.90
66088;DHT22;52872;52.994;6.940;2023-05-03T06:22:44;11.80;99.70
66088;DHT22;52872;52.994;6.940;2023-05-03T06:25:11;11.90;99.00
66088;DHT22;52872;52.994;6.940;2023-05-03T06:27:43;12.00;99.00
66088;DHT22;52872;52.994;6.940;2023-05-03T06:30:11;12.00;98.40
66088;DHT22;52872;52.994;6.940;2023-05-03T06:32:40;12.10;98.10
66088;DHT22;52872;52.994;6.940;2023-05-03T06:35:08;12.20;98.10
66088;DHT22;52872;52.994;6.940;2023-05-03T06:37:37;12.20;97.80
66088;DHT22;52872;52.994;6.940;2023-05-03T06:40:06;12.30;97.70
66088;DHT22;52872;52.994;6.940;2023-05-03T06:42:34;12.30;97.30
66088;DHT22;52872;52.994;6.940;2023-05-03T06:45:19;12.40;97.00
66088;DHT22;52872;52.994;6.940;2023-05-03T06:47:46;12.50;96.80
66088;DHT22;52872;52.994;6.940;2023-05-03T06:50:15;12.50;96.70
66088;DHT22;52872;52.994;6.940;2023-05-03T06:52:42;12.50;96.60
66088;DHT22;52872;52.994;6.940;2023-05-03T06:55:09;12.50;96.30
66088;DHT22;52872;52.994;6.940;2023-05-03T06:57:37;12.50;96.30
66088;DHT22;52872;52.994;6.940;2023-05-03T07:00:04;12.50;95.90
66088;DHT22;52872;52.994;6.940;2023-05-03T07:02:33;12.50;95.20
66088;DHT22;52872;52.994;6.940;2023-05-03T07:05:00;12.40;95.20
66088;DHT22;52872;52.994;6.940;2023-05-03T07:07:27;12.40;95.20
66088;DHT22;52872;52.994;6.940;2023-05-03T07:09:54;12.40;95.10
66088;DHT22;52872;52.994;6.940;2023-05-03T07:12:21;12.40;95.10
66088;DHT22;52872;52.994;6.940;2023-05-03T07:14:56;12.40;95.20
66088;DHT22;52872;52.994;6.940;2023-05-03T07:17:24;12.40;95.10
66088;DHT22;52872;52.994;6.940;2023-05-03T07:19:51;12.50;95.00
66088;DHT22;52872;52.994;6.940;2023-05-03T07:22:18;12.60;95.00
66088;DHT22;52872;52.994;6.940;2023-05-03T07:24:51;12.60;95.00
66088;DHT22;52872;52.994;6.940;2023-05-03T07:27:20;12.70;94.90
66088;DHT22;52872;52.994;6.940;2023-05-03T07:29:47;12.70;94.60
66088;DHT22;52872;52.994;6.940;2023-05-03T07:32:14;12.80;94.60
66088;DHT22;52872;52.994;6.940;2023-05-03T07:34:41;12.80;94.50
66088;DHT22;52872;52.994;6.940;2023-05-03T07:37:08;12.80;94.30
66088;DHT22;52872;52.994;6.940;2023-05-03T07:39:35;12.70;94.00
66088;DHT22;52872;52.994;6.940;2023-05-03T07:42:02;12.60;94.20
66088;DHT22;52872;52.994;6.940;2023-05-03T07:44:29;12.40;94.40
66088;DHT22;52872;52.994;6.940;2023-05-03T07:46:56;12.40;94.70
66088;DHT22;52872;52.994;6.940;2023-05-03T07:49:23;12.40;94.50
66088;DHT22;52872;52.994;6.940;2023-05-03T07:51:50;12.40;94.30
66088;DHT22;52872;52.994;6.940;2023-05-03T07:54:17;12.50;94.20
66088;DHT22;52872;52.994;6.940;2023-05-03T07:56:44;12.60;94.40
66088;DHT22;52872;52.994;6.940;2023-05-03T07:59:11;12.70;94.00
66088;DHT22;52872;52.994;6.940;2023-05-03T08:01:38;12.80;93.90
66088;DHT22;52872;52.994;6.940;2023-05-03T08:04:05;12.80;93.80
66088;DHT22;52872;52.994;6.940;2023-05-03T08:06:32;12.90;93.50
66088;DHT22;52872;52.994;6.940;2023-05-03T08:09:01;13.00;93.50
66088;DHT22;52872;52.994;6.940;2023-05-03T08:11:28;13.00;93.10
66088;DHT22;52872;52.994;6.940;2023-05-03T08:13:55;13.20;93.10
66088;DHT22;52872;52.994;6.940;2023-05-03T08:16:22;13.30;92.90
66088;DHT22;52872;52.994;6.940;2023-05-03T08:18:50;13.40;92.80
66088;DHT22;52872;52.994;6.940;2023-05-03T08:21:17;13.50;92.60
66088;DHT22;52872;52.994;6.940;2023-05-03T08:23:44;13.50;92.60
66088;DHT22;52872;52.994;6.940;2023-05-03T08:26:12;13.70;92.10
66088;DHT22;52872;52.994;6.940;2023-05-03T08:28:41;13.90;92.00
66088;DHT22;52872;52.994;6.940;2023-05-03T08:31:08;14.10;92.10
66088;DHT22;52872;52.994;6.940;2023-05-03T08:33:35;14.30;91.70
66088;DHT22;52872;52.994;6.940;2023-05-03T08:36:03;14.60;91.40
66088;DHT22;52872;52.994;6.940;2023-05-03T08:38:30;14.70;90.50
66088;DHT22;52872;52.994;6.940;2023-05-03T08:41:09;14.80;90.50
66088;DHT22;52872;52.994;6.940;2023-05-03T08:43:42;15.10;89.80
66088;DHT22;52872;52.994;6.940;2023-05-03T08:46:10;15.30;88.90
66088;DHT22;52872;52.994;6.940;2023-05-03T08:48:38;15.40;89.10
66088;DHT22;52872;52.994;6.940;2023-05-03T08:51:07;15.60;88.00
66088;DHT22;52872;52.994;6.940;2023-05-03T08:53:35;15.60;87.20
66088;DHT22;52872;52.994;6.940;2023-05-03T08:56:10;15.50;86.70
66088;DHT22;52872;52.994;6.940;2023-05-03T08:58:38;15.70;86.20
66088;DHT22;52872;52.994;6.940;2023-05-03T09:01:06;15.90;85.90
66088;DHT22;52872;52.994;6.940;2023-05-03T09:03:34;15.90;85.20
66088;DHT22;52872;52.994;6.940;2023-05-03T09:06:02;15.90;85.10
66088;DHT22;52872;52.994;6.940;2023-05-03T09:08:41;15.80;84.20
66088;DHT22;52872;52.994;6.940;2023-05-03T09:11:29;16.00;83.10
66088;DHT22;52872;52.994;6.940;2023-05-03T09:14:14;16.00;82.70
66088;DHT22;52872;52.994;6.940;2023-05-03T09:16:43;16.00;82.80
66088;DHT22;52872;52.994;6.940;2023-05-03T09:19:12;16.10;83.20
66088;DHT22;52872;52.994;6.940;2023-05-03T09:21:41;16.10;82.30
66088;DHT22;52872;52.994;6.940;2023-05-03T09:24:16;16.20;82.40
66088;DHT22;52872;52.994;6.940;2023-05-03T09:26:44;16.30;82.30
66088;DHT22;52872;52.994;6.940;2023-05-03T09:29:32;16.20;82.70
66088;DHT22;52872;52.994;6.940;2023-05-03T09:32:01;16.30;81.70
66088;DHT22;52872;52.994;6.940;2023-05-03T09:34:31;16.30;81.70
66088;DHT22;52872;52.994;6.940;2023-05-03T09:36:59;16.50;81.60
66088;DHT22;52872;52.994;6.940;2023-05-03T09:39:26;16.60;80.70
66088;DHT22;52872;52.994;6.940;2023-05-03T09:41:53;16.60;80.20
66088;DHT22;52872;52.994;6.940;2023-05-03T09:44:43;16.30;80.50
66088;DHT22;52872;52.994;6.940;2023-05-03T09:47:10;16.20;80.90
66088;DHT22;52872;52.994;6.940;2023-05-03T09:49:38;16.00;82.10
66088;DHT22;52872;52.994;6.940;2023-05-03T09:52:06;15.80;80.20
66088;DHT22;52872;52.994;6.940;2023-05-03T09:54:34;15.40;80.80
66088;DHT22;52872;52.994;6.940;2023-05-03T09:57:04;15.30;81.30
66088;DHT22;52872;52.994;6.940;2023-05-03T09:59:33;15.20;82.00
66088;DHT22;52872;52.994;6.940;2023-05-03T10:02:03;15.20;82.20
66088;DHT22;52872;52.994;6.940;2023-05-03T10:04:46;15.50;82.50
66088;DHT22;52872;52.994;6.940;2023-05-03T10:07:16;15.50;81.60
66088;DHT22;52872;52.994;6.940;2023-05-03T10:09:46;15.30;81.30
66088;DHT22;52872;52.994;6.940;2023-05-03T10:12:14;15.10;82.20
66088;DHT22;52872;52.994;6.940;2023-05-03T10:14:45;14.80;82.40
66088;DHT22;52872;52.994;6.940;2023-05-03T10:17:29;14.60;82.80
66088;DHT22;52872;52.994;6.940;2023-05-03T10:20:40;14.70;83.00
66088;DHT22;52872;52.994;6.940;2023-05-03T10:23:13;14.70;82.20
66088;DHT22;52872;52.994;6.940;2023-05-03T10:28:39;14.60;82.90
66088;DHT22;52872;52.994;6.940;2023-05-03T10:31:59;14.40;83.50
66088;DHT22;52872;52.994;6.940;2023-05-03T10:34:23;14.50;83.10
66088;DHT22;52872;52.994;6.940;2023-05-03T10:36:51;14.60;83.50
66088;DHT22;52872;52.994;6.940;2023-05-03T10:39:19;14.70;83.70
66088;DHT22;52872;52.994;6.940;2023-05-03T10:42:03;14.70;83.60
66088;DHT22;52872;52.994;6.940;2023-05-03T10:44:35;15.00;82.70
66088;DHT22;52872;52.994;6.940;2023-05-03T10:47:14;15.00;82.40
66088;DHT22;52872;52.994;6.940;2023-05-03T10:49:42;15.10;81.90
66088;DHT22;52872;52.994;6.940;2023-05-03T10:55:01;15.50;80.30
66088;DHT22;52872;52.994;6.940;2023-05-03T10:57:31;15.50;82.20
66088;DHT22;52872;52.994;6.940;2023-05-03T10:59:58;15.70;81.90
66088;DHT22;52872;52.994;6.940;2023-05-03T11:02:30;15.80;81.70
66088;DHT22;52872;52.994;6.940;2023-05-03T11:05:01;16.10;81.30
66088;DHT22;52872;52.994;6.940;2023-05-03T11:07:31;16.40;79.70
66088;DHT22;52872;52.994;6.940;2023-05-03T11:09:58;16.50;79.50
66088;DHT22;52872;52.994;6.940;2023-05-03T11:12:25;16.60;78.70
66088;DHT22;52872;52.994;6.940;2023-05-03T11:14:51;16.80;78.60
66088;DHT22;52872;52.994;6.940;2023-05-03T11:17:18;16.80;78.00
66088;DHT22;52872;52.994;6.940;2023-05-03T11:19:45;16.40;78.20
66088;DHT22;52872;52.994;6.940;2023-05-03T11:22:12;16.10;80.30
66088;DHT22;52872;52.994;6.940;2023-05-03T11:24:39;15.80;80.20
66088;DHT22;52872;52.994;6.940;2023-05-03T11:27:10;15.40;79.90
66088;DHT22;52872;52.994;6.940;2023-05-03T11:29:39;15.30;80.50
66088;DHT22;52872;52.994;6.940;2023-05-03T11:32:07;15.30;81.10
66088;DHT22;52872;52.994;6.940;2023-05-03T11:34:34;15.40;81.10
66088;DHT22;52872;52.994;6.940;2023-05-03T11:37:02;15.40;80.00
66088;DHT22;52872;52.994;6.940;2023-05-03T11:39:31;15.40;80.60
66088;DHT22;52872;52.994;6.940;2023-05-03T11:42:04;15.60;81.80
66088;DHT22;52872;52.994;6.940;2023-05-03T11:44:32;15.60;80.90
66088;DHT22;52872;52.994;6.940;2023-05-03T11:46:59;15.60;80.10
66088;DHT22;52872;52.994;6.940;2023-05-03T11:49:27;15.50;78.80
66088;DHT22;52872;52.994;6.940;2023-05-03T11:51:54;15.60;79.10
66088;DHT22;52872;52.994;6.940;2023-05-03T11:54:22;15.70;79.50
66088;DHT22;52872;52.994;6.940;2023-05-03T11:56:56;15.60;79.80
66088;DHT22;52872;52.994;6.940;2023-05-03T11:59:37;15.70;79.50
66088;DHT22;52872;52.994;6.940;2023-05-03T12:02:06;15.70;79.40
66088;DHT22;52872;52.994;6.940;2023-05-03T12:04:39;15.80;80.40
66088;DHT22;52872;52.994;6.940;2023-05-03T12:07:11;15.80;80.30
66088;DHT22;52872;52.994;6.940;2023-05-03T12:09:41;15.60;80.30
66088;DHT22;52872;52.994;6.940;2023-05-03T12:12:18;15.40;80.60
66088;DHT22;52872;52.994;6.940;2023-05-03T12:14:57;15.30;81.60
66088;DHT22;52872;52.994;6.940;2023-05-03T12:17:37;15.20;81.40
66088;DHT22;52872;52.994;6.940;2023-05-03T12:20:17;15.30;80.90
66088;DHT22;52872;52.994;6.940;2023-05-03T12:22:52;15.40;81.60
66088;DHT22;52872;52.994;6.940;2023-05-03T12:25:24;15.50;81.00
66088;DHT22;52872;52.994;6.940;2023-05-03T12:27:55;15.50;81.20
66088;DHT22;52872;52.994;6.940;2023-05-03T12:30:44;15.40;81.80
66088;DHT22;52872;52.994;6.940;2023-05-03T12:33:12;15.30;81.10
66088;DHT22;52872;52.994;6.940;2023-05-03T12:35:41;15.20;81.60
66088;DHT22;52872;52.994;6.940;2023-05-03T12:38:12;15.00;81.40
66088;DHT22;52872;52.994;6.940;2023-05-03T12:40:42;15.10;81.30
66088;DHT22;52872;52.994;6.940;2023-05-03T12:43:11;15.20;80.70
66088;DHT22;52872;52.994;6.940;2023-05-03T12:45:38;15.20;80.90
66088;DHT22;52872;52.994;6.940;2023-05-03T12:48:06;15.20;81.10
66088;DHT22;52872;52.994;6.940;2023-05-03T12:50:34;15.30;81.90
66088;DHT22;52872;52.994;6.940;2023-05-03T12:53:04;15.30;80.70
66088;DHT22;52872;52.994;6.940;2023-05-03T12:55:44;15.40;81.00
66088;DHT22;52872;52.994;6.940;2023-05-03T12:58:16;15.30;81.90
66088;DHT22;52872;52.994;6.940;2023-05-03T13:00:46;15.20;82.60
66088;DHT22;52872;52.994;6.940;2023-05-03T13:03:37;15.00;82.60
66088;DHT22;52872;52.994;6.940;2023-05-03T13:06:09;14.90;83.40
66088;DHT22;52872;52.994;6.940;2023-05-03T13:08:39;14.80;83.00
66088;DHT22;52872;52.994;6.940;2023-05-03T13:11:14;15.00;83.40
66088;DHT22;52872;52.994;6.940;2023-05-03T13:13:44;15.10;83.00
66088;DHT22;52872;52.994;6.940;2023-05-03T13:16:18;15.20;83.20
66088;DHT22;52872;52.994;6.940;2023-05-03T13:18:45;15.30;82.50
66088;DHT22;52872;52.994;6.940;2023-05-03T13:21:12;15.20;83.20
66088;DHT22;52872;52.994;6.940;2023-05-03T13:23:39;15.10;82.80
66088;DHT22;52872;52.994;6.940;2023-05-03T13:26:06;14.90;84.00
66088;DHT22;52872;52.994;6.940;2023-05-03T13:28:33;14.90;83.50
66088;DHT22;52872;52.994;6.940;2023-05-03T13:31:12;15.10;82.80
66088;DHT22;52872;52.994;6.940;2023-05-03T13:33:39;15.00;82.90
66088;DHT22;52872;52.994;6.940;2023-05-03T13:36:07;14.80;83.70
66088;DHT22;52872;52.994;6.940;2023-05-03T13:38:34;14.90;83.90
66088;DHT22;52872;52.994;6.940;2023-05-03T13:41:05;14.90;83.30
66088;DHT22;52872;52.994;6.940;2023-05-03T13:43:34;14.80;83.80
66088;DHT22;52872;52.994;6.940;2023-05-03T13:46:01;14.80;84.30
66088;DHT22;52872;52.994;6.940;2023-05-03T13:48:28;14.90;83.80
66088;DHT22;52872;52.994;6.940;2023-05-03T13:50:57;14.90;83.60
66088;DHT22;52872;52.994;6.940;2023-05-03T13:53:25;14.90;84.30
66088;DHT22;52872;52.994;6.940;2023-05-03T13:55:52;15.00;83.40
66088;DHT22;52872;52.994;6.940;2023-05-03T13:58:19;15.00;83.40
66088;DHT22;52872;52.994;6.940;2023-05-03T14:00:46;15.00;84.40
66088;DHT22;52872;52.994;6.940;2023-05-03T14:03:13;15.00;83.50
66088;DHT22;52872;52.994;6.940;2023-05-03T14:05:41;15.00;83.10
66088;DHT22;52872;52.994;6.940;2023-05-03T14:08:07;15.00;83.00
66088;DHT22;52872;52.994;6.940;2023-05-03T14:10:35;15.10;82.80
66088;DHT22;52872;52.994;6.940;2023-05-03T14:13:02;15.20;84.50
66088;DHT22;52872;52.994;6.940;2023-05-03T14:15:29;15.20;84.90
66088;DHT22;52872;52.994;6.940;2023-05-03T14:17:56;15.20;84.70
66088;DHT22;52872;52.994;6.940;2023-05-03T14:20:27;15.10;84.40
66088;DHT22;52872;52.994;6.940;2023-05-03T14:22:55;15.00;84.30
66088;DHT22;52872;52.994;6.940;2023-05-03T14:25:22;15.00;84.70
66088;DHT22;52872;52.994;6.940;2023-05-03T14:27:49;15.00;84.80
66088;DHT22;52872;52.994;6.940;2023-05-03T14:30:16;15.10;84.50
66088;DHT22;52872;52.994;6.940;2023-05-03T14:32:43;15.20;84.30
66088;DHT22;52872;52.994;6.940;2023-05-03T14:35:10;15.20;84.00
66088;DHT22;52872;52.994;6.940;2023-05-03T14:37:37;15.00;84.20
66088;DHT22;52872;52.994;6.940;2023-05-03T14:40:04;15.00;83.80
66088;DHT22;52872;52.994;6.940;2023-05-03T14:42:32;14.90;83.80
66088;DHT22;52872;52.994;6.940;2023-05-03T14:44:59;14.90;84.00
66088;DHT22;52872;52.994;6.940;2023-05-03T14:47:27;14.90;84.00
66088;DHT22;52872;52.994;6.940;2023-05-03T14:49:54;15.00;85.20
66088;DHT22;52872;52.994;6.940;2023-05-03T14:52:21;15.00;84.90
66088;DHT22;52872;52.994;6.940;2023-05-03T14:54:48;15.00;84.80
66088;DHT22;52872;52.994;6.940;2023-05-03T14:57:15;15.00;86.50
66088;DHT22;52872;52.994;6.940;2023-05-03T14:59:42;15.00;85.70
66088;DHT22;52872;52.994;6.940;2023-05-03T15:02:11;15.10;84.90
66088;DHT22;52872;52.994;6.940;2023-05-03T15:04:38;15.00;85.70
66088;DHT22;52872;52.994;6.940;2023-05-03T15:07:05;15.00;85.80
66088;DHT22;52872;52.994;6.940;2023-05-03T15:09:35;14.80;85.10
66088;DHT22;52872;52.994;6.940;2023-05-03T15:12:04;14.80;85.80
66088;DHT22;52872;52.994;6.940;2023-05-03T15:14:30;14.90;86.10
66088;DHT22;52872;52.994;6.940;2023-05-03T15:16:57;14.90;86.60
66088;DHT22;52872;52.994;6.940;2023-05-03T15:19:25;14.80;86.60
66088;DHT22;52872;52.994;6.940;2023-05-03T15:21:52;14.90;87.00
66088;DHT22;52872;52.994;6.940;2023-05-03T15:24:19;14.90;86.30
66088;DHT22;52872;52.994;6.940;2023-05-03T15:26:47;14.90;86.10
66088;DHT22;52872;52.994;6.940;2023-05-03T15:29:14;15.00;86.20
66088;DHT22;52872;52.994;6.940;2023-05-03T15:31:42;15.00;86.60
66088;DHT22;52872;52.994;6.940;2023-05-03T15:34:09;15.10;86.50
66088;DHT22;52872;52.994;6.940;2023-05-03T15:36:37;15.10;85.20
66088;DHT22;52872;52.994;6.940;2023-05-03T15:39:05;15.10;85.70
66088;DHT22;52872;52.994;6.940;2023-05-03T15:41:31;15.10;86.30
66088;DHT22;52872;52.994;6.940;2023-05-03T15:43:58;15.00;86.00
66088;DHT22;52872;52.994;6.940;2023-05-03T15:46:31;15.00;86.60
66088;DHT22;52872;52.994;6.940;2023-05-03T15:48:58;14.80;86.20
66088;DHT22;52872;52.994;6.940;2023-05-03T15:51:25;14.80;86.80
66088;DHT22;52872;52.994;6.940;2023-05-03T15:53:53;14.80;87.50
66088;DHT22;52872;52.994;6.940;2023-05-03T15:56:20;14.90;87.30
66088;DHT22;52872;52.994;6.940;2023-05-03T15:58:47;14.80;86.60
66088;DHT22;52872;52.994;6.940;2023-05-03T16:01:15;14.70;87.00
66088;DHT22;52872;52.994;6.940;2023-05-03T16:03:45;14.60;86.20
66088;DHT22;52872;52.994;6.940;2023-05-03T16:06:15;14.60;87.80
66088;DHT22;52872;52.994;6.940;2023-05-03T16:08:44;14.50;87.20